createdAt,value
2022-08-09T00:00:23.911Z,24.50
2022-08-09T00:02:52.590Z,24.50
2022-08-09T00:06:17.287Z,24.50
2022-08-09T00:08:31.493Z,24.50
2022-08-09T00:10:59.974Z,24.40
2022-08-09T00:13:28.228Z,24.40
2022-08-09T00:16:02.352Z,24.40
2022-08-09T00:18:34.809Z,24.30
2022-08-09T00:21:04.849Z,24.30
2022-08-09T00:23:56.506Z,24.30
2022-08-09T00:26:29.585Z,24.30
2022-08-09T00:29:01.659Z,24.20
2022-08-09T00:31:58.299Z,24.20
2022-08-09T00:34:20.392Z,24.20
2022-08-09T00:36:49.559Z,24.10
2022-08-09T00:40:13.864Z,24.10
2022-08-09T00:44:19.182Z,24.10
2022-08-09T00:44:55.221Z,24.00
2022-08-09T00:47:24.773Z,24.00
2022-08-09T00:49:55.002Z,24.00
2022-08-09T00:52:30.603Z,24.00
2022-08-09T00:55:01.109Z,24.00
2022-08-09T00:57:35.079Z,23.90
2022-08-09T01:00:21.742Z,23.90
2022-08-09T01:03:06.078Z,23.80
2022-08-09T01:05:51.041Z,23.80
2022-08-09T01:08:34.387Z,23.80
2022-08-09T01:11:23.786Z,23.70
2022-08-09T01:14:00.090Z,23.70
2022-08-09T01:16:35.948Z,23.70
2022-08-09T01:19:40.080Z,23.70
2022-08-09T01:23:04.712Z,23.60
2022-08-09T01:25:57.715Z,23.50
2022-08-09T01:28:27.438Z,23.60
2022-08-09T01:30:59.958Z,23.50
2022-08-09T01:33:35.250Z,23.50
2022-08-09T01:36:08.137Z,23.50
2022-08-09T01:38:41.561Z,23.50
2022-08-09T01:41:18.502Z,23.40
2022-08-09T01:43:59.797Z,23.40
2022-08-09T01:46:32.488Z,23.40
2022-08-09T01:49:10.093Z,23.40
2022-08-09T01:51:53.656Z,23.40
2022-08-09T01:54:32.680Z,23.30
2022-08-09T01:57:10.520Z,23.30
2022-08-09T01:59:52.066Z,23.30
2022-08-09T02:02:30.105Z,23.30
2022-08-09T02:05:11.752Z,23.20
2022-08-09T02:08:38.412Z,23.20
2022-08-09T02:10:51.131Z,23.20
2022-08-09T02:13:26.060Z,23.10
2022-08-09T02:16:12.387Z,23.10
2022-08-09T02:18:42.804Z,23.10
2022-08-09T02:21:22.238Z,23.10
2022-08-09T02:23:56.785Z,23.10
2022-08-09T02:26:29.482Z,23.00
2022-08-09T02:29:02.942Z,23.00
2022-08-09T02:31:40.358Z,23.00
2022-08-09T02:34:25.870Z,23.00
2022-08-09T02:37:09.250Z,22.90
2022-08-09T02:39:49.932Z,22.90
2022-08-09T02:42:31.903Z,22.90
2022-08-09T02:45:05.126Z,22.90
2022-08-09T02:47:57.560Z,22.80
2022-08-09T02:50:34.223Z,22.80
2022-08-09T02:53:08.706Z,22.80
2022-08-09T02:55:46.361Z,22.80
2022-08-09T02:58:38.162Z,22.70
2022-08-09T03:01:11.237Z,22.70
2022-08-09T03:04:17.316Z,22.70
2022-08-09T03:06:42.372Z,22.70
2022-08-09T03:09:16.319Z,22.70
2022-08-09T03:12:09.915Z,22.60
2022-08-09T03:14:36.746Z,22.60
2022-08-09T03:17:05.919Z,22.60
2022-08-09T03:19:57.618Z,22.60
2022-08-09T03:22:30.678Z,22.50
2022-08-09T03:25:25.723Z,22.50
2022-08-09T03:27:51.965Z,22.50
2022-08-09T03:30:29.861Z,22.50
2022-08-09T03:33:12.671Z,22.50
2022-08-09T03:36:11.857Z,22.50
2022-08-09T03:38:30.968Z,22.40
2022-08-09T03:40:59.237Z,22.40
2022-08-09T03:43:32.031Z,22.40
2022-08-09T03:46:03.981Z,22.40
2022-08-09T03:48:52.188Z,22.40
2022-08-09T03:51:54.984Z,22.30
2022-08-09T03:54:13.099Z,22.30
2022-08-09T03:56:42.297Z,22.30
2022-08-09T03:59:17.165Z,22.30
2022-08-09T04:01:51.259Z,22.30
2022-08-09T04:04:20.187Z,22.20
2022-08-09T04:06:54.190Z,22.20
2022-08-09T04:09:48.057Z,22.20
2022-08-09T04:12:39.034Z,22.10
2022-08-09T04:15:17.337Z,22.20
2022-08-09T04:17:58.060Z,22.20
2022-08-09T04:20:26.085Z,22.20
2022-08-09T04:22:55.733Z,22.10
2022-08-09T04:25:23.927Z,22.20
2022-08-09T04:27:53.483Z,22.20
2022-08-09T04:30:28.900Z,22.20
2022-08-09T04:32:56.938Z,22.20
2022-08-09T04:35:24.841Z,22.20
2022-08-09T04:37:58.678Z,22.20
2022-08-09T04:40:45.725Z,22.20
2022-08-09T04:43:15.189Z,22.20
2022-08-09T04:45:53.778Z,22.20
2022-08-09T04:48:23.842Z,22.30
2022-08-09T04:51:01.670Z,22.30
2022-08-09T04:53:31.351Z,22.30
2022-08-09T04:56:00.110Z,22.30
2022-08-09T04:58:29.745Z,22.40
2022-08-09T05:01:00.469Z,22.40
2022-08-09T05:03:41.034Z,22.40
2022-08-09T05:06:27.388Z,22.50
2022-08-09T05:09:00.871Z,22.50
2022-08-09T05:11:30.555Z,22.50
2022-08-09T05:14:00.619Z,22.50
2022-08-09T05:16:32.046Z,22.60
2022-08-09T05:19:00.827Z,22.60
2022-08-09T05:21:46.425Z,22.60
2022-08-09T05:24:16.942Z,22.60
2022-08-09T05:26:46.103Z,22.60
2022-08-09T05:29:22.179Z,22.70
2022-08-09T05:31:58.365Z,22.70
2022-08-09T05:34:30.108Z,22.70
2022-08-09T05:37:05.298Z,22.70
2022-08-09T05:39:43.153Z,22.80
2022-08-09T05:42:17.393Z,22.80
2022-08-09T05:44:51.679Z,22.80
2022-08-09T05:47:21.400Z,22.90
2022-08-09T05:50:28.171Z,22.90
2022-08-09T05:52:38.483Z,22.90
2022-08-09T05:55:10.950Z,23.00
2022-08-09T05:57:55.222Z,23.00
2022-08-09T06:00:25.123Z,23.10
2022-08-09T06:02:54.263Z,23.10
2022-08-09T06:05:49.910Z,23.20
2022-08-09T06:08:13.836Z,23.30
2022-08-09T06:10:49.812Z,23.30
2022-08-09T06:13:20.595Z,23.40
2022-08-09T06:15:51.051Z,23.50
2022-08-09T06:18:25.433Z,23.50
2022-08-09T06:20:56.977Z,23.70
2022-08-09T06:23:58.890Z,23.80
2022-08-09T06:26:20.920Z,23.90
2022-08-09T06:29:00.190Z,24.10
2022-08-09T06:31:39.730Z,24.30
2022-08-09T06:34:23.455Z,24.40
2022-08-09T06:36:59.381Z,24.60
2022-08-09T06:39:48.759Z,24.80
2022-08-09T06:42:20.183Z,24.90
2022-08-09T06:44:54.534Z,25.10
2022-08-09T06:47:23.689Z,25.30
2022-08-09T06:50:15.004Z,25.50
2022-08-09T06:52:45.819Z,25.70
2022-08-09T06:55:17.154Z,25.90
2022-08-09T06:58:02.813Z,26.10
2022-08-09T07:00:53.979Z,26.20
2022-08-09T07:03:26.931Z,26.40
2022-08-09T07:06:03.513Z,26.50
2022-08-09T07:08:37.216Z,26.70
2022-08-09T07:11:08.033Z,26.80
2022-08-09T07:14:04.223Z,26.90
2022-08-09T07:16:41.781Z,27.00
2022-08-09T07:19:14.997Z,27.10
2022-08-09T07:21:55.900Z,27.20
2022-08-09T07:24:32.172Z,27.40
2022-08-09T07:27:33.161Z,27.50
2022-08-09T07:30:02.174Z,27.60
2022-08-09T07:32:33.594Z,27.80
2022-08-09T07:35:07.908Z,27.90
2022-08-09T07:37:43.236Z,28.10
2022-08-09T07:40:17.246Z,28.30
2022-08-09T07:42:55.729Z,28.40
2022-08-09T07:45:39.851Z,28.60
2022-08-09T07:48:25.718Z,28.80
2022-08-09T07:51:09.988Z,29.00
2022-08-09T07:54:07.308Z,29.30
2022-08-09T07:56:38.852Z,29.40
2022-08-09T07:59:14.220Z,29.60
2022-08-09T08:01:56.186Z,29.80
2022-08-09T08:04:25.514Z,30.00
2022-08-09T08:07:27.155Z,30.20
2022-08-09T08:09:53.479Z,30.40
2022-08-09T08:12:33.571Z,30.60
2022-08-09T08:15:01.823Z,30.70
2022-08-09T08:17:52.397Z,30.90
2022-08-09T08:20:19.608Z,31.00
2022-08-09T08:23:01.714Z,31.20
2022-08-09T08:25:44.442Z,31.40
2022-08-09T08:28:15.249Z,31.50
2022-08-09T08:30:44.606Z,31.70
2022-08-09T08:33:22.916Z,31.80
2022-08-09T08:35:59.531Z,31.90
2022-08-09T08:38:29.755Z,32.00
2022-08-09T08:40:59.616Z,32.20
2022-08-09T08:43:28.081Z,32.30
2022-08-09T08:46:31.898Z,32.30
2022-08-09T08:48:54.985Z,32.40
2022-08-09T08:51:24.267Z,32.50
2022-08-09T08:54:03.394Z,32.50
2022-08-09T08:56:36.296Z,32.60
2022-08-09T08:59:19.063Z,32.60
2022-08-09T09:01:53.212Z,32.60
2022-08-09T09:04:31.962Z,32.60
2022-08-09T09:07:10.984Z,32.60
2022-08-09T09:10:01.714Z,32.60
2022-08-09T09:12:34.352Z,32.60
2022-08-09T09:15:07.343Z,32.60
2022-08-09T09:17:49.599Z,32.60
2022-08-09T09:20:22.456Z,32.50
2022-08-09T09:22:56.336Z,32.50
2022-08-09T09:26:03.556Z,32.40
2022-08-09T09:29:02.035Z,32.40
2022-08-09T09:32:04.689Z,32.30
2022-08-09T09:34:14.661Z,32.30
2022-08-09T09:36:50.910Z,32.20
2022-08-09T09:39:23.737Z,32.10
2022-08-09T09:42:25.253Z,32.00
2022-08-09T09:44:59.609Z,31.90
2022-08-09T09:47:29.929Z,31.90
2022-08-09T09:50:14.429Z,31.90
2022-08-09T09:52:54.651Z,31.80
2022-08-09T09:55:31.871Z,31.70
2022-08-09T09:58:15.759Z,31.70
2022-08-09T10:00:52.543Z,31.60
2022-08-09T10:03:44.459Z,31.50
2022-08-09T10:06:13.752Z,31.40
2022-08-09T10:08:55.083Z,31.40
2022-08-09T10:12:00.557Z,31.30
2022-08-09T10:14:27.240Z,31.20
2022-08-09T10:17:24.143Z,31.20
2022-08-09T10:19:47.169Z,31.20
2022-08-09T10:22:33.056Z,31.10
2022-08-09T10:25:11.742Z,31.10
2022-08-09T10:27:56.331Z,31.10
2022-08-09T10:32:20.997Z,30.80
2022-08-09T10:33:29.691Z,30.90
2022-08-09T10:36:11.572Z,30.90
2022-08-09T10:38:56.051Z,30.90
2022-08-09T10:41:28.993Z,30.80
2022-08-09T10:43:59.563Z,30.80
2022-08-09T10:47:00.581Z,30.70
2022-08-09T10:49:51.224Z,30.70
2022-08-09T10:52:46.353Z,30.60
2022-08-09T10:55:22.785Z,30.60
2022-08-09T10:57:55.901Z,30.60
2022-08-09T11:01:11.408Z,30.60
2022-08-09T11:03:49.932Z,30.60
2022-08-09T11:06:26.077Z,30.50
2022-08-09T11:08:54.914Z,30.50
2022-08-09T11:12:06.949Z,30.40
2022-08-09T11:14:41.755Z,30.40
2022-08-09T11:17:53.451Z,30.40
2022-08-09T11:20:47.549Z,30.40
2022-08-09T11:23:23.955Z,30.40
2022-08-09T11:25:54.795Z,30.40
2022-08-09T11:28:54.211Z,30.40
2022-08-09T11:31:52.737Z,30.30
2022-08-09T11:34:36.046Z,30.30
2022-08-09T11:37:07.318Z,30.40
2022-08-09T11:40:04.776Z,30.30
2022-08-09T11:42:43.263Z,30.30
2022-08-09T11:45:22.148Z,30.30
2022-08-09T11:47:53.424Z,30.30
2022-08-09T11:50:56.945Z,30.30
2022-08-09T11:54:01.476Z,30.30
2022-08-09T11:56:42.499Z,30.20
2022-08-09T11:59:30.490Z,30.20
2022-08-09T12:02:34.657Z,30.30
2022-08-09T12:04:58.028Z,30.30
2022-08-09T12:07:34.476Z,30.30
2022-08-09T12:10:38.030Z,30.30
2022-08-09T12:13:03.459Z,30.30
2022-08-09T12:15:50.029Z,30.30
2022-08-09T12:18:30.098Z,30.30
2022-08-09T12:21:04.306Z,30.30
2022-08-09T12:24:06.260Z,30.30
2022-08-09T12:26:44.811Z,30.30
2022-08-09T12:29:44.512Z,30.30
2022-08-09T12:32:27.684Z,30.30
2022-08-09T12:35:03.024Z,30.30
2022-08-09T12:37:44.229Z,30.20
2022-08-09T12:40:19.129Z,30.30
2022-08-09T12:42:50.346Z,30.30
2022-08-09T12:45:34.323Z,30.30
2022-08-09T12:48:10.995Z,30.30
2022-08-09T12:50:59.431Z,30.20
2022-08-09T12:53:37.180Z,30.20
2022-08-09T12:56:29.768Z,30.20
2022-08-09T12:59:11.763Z,30.20
2022-08-09T13:01:49.054Z,30.20
2022-08-09T13:04:36.360Z,30.20
2022-08-09T13:07:16.229Z,30.20
2022-08-09T13:09:55.807Z,30.20
2022-08-09T13:12:30.634Z,30.20
2022-08-09T13:15:07.118Z,30.20
2022-08-09T13:18:02.897Z,30.20
2022-08-09T13:20:37.813Z,30.10
2022-08-09T13:24:16.311Z,30.10
2022-08-09T13:26:41.649Z,30.10
2022-08-09T13:29:13.404Z,30.20
2022-08-09T13:32:14.450Z,30.10
2022-08-09T13:34:46.179Z,30.20
2022-08-09T13:37:50.533Z,30.20
2022-08-09T13:41:51.142Z,30.20
2022-08-09T13:42:55.171Z,30.20
2022-08-09T13:45:31.868Z,30.10
2022-08-09T13:48:00.553Z,30.20
2022-08-09T13:50:31.924Z,30.20
2022-08-09T13:53:00.236Z,30.20
2022-08-09T13:55:28.719Z,30.20
2022-08-09T13:57:59.507Z,30.20
2022-08-09T14:00:29.800Z,30.20
2022-08-09T14:03:04.574Z,30.20
2022-08-09T14:05:59.259Z,30.10
2022-08-09T14:08:30.535Z,30.10
2022-08-09T14:11:01.323Z,30.10
2022-08-09T14:14:22.970Z,30.10
2022-08-09T14:16:28.848Z,30.10
2022-08-09T14:18:58.433Z,30.10
2022-08-09T14:21:29.092Z,30.10
2022-08-09T14:24:10.022Z,30.10
2022-08-09T14:26:39.696Z,30.10
2022-08-09T14:30:04.105Z,30.00
2022-08-09T14:32:06.032Z,30.10
2022-08-09T14:34:41.108Z,30.10
2022-08-09T14:37:09.966Z,30.00
2022-08-09T14:39:48.060Z,30.00
2022-08-09T14:42:30.357Z,30.00
2022-08-09T14:46:40.561Z,30.00
2022-08-09T14:47:57.197Z,30.00
2022-08-09T14:50:29.336Z,30.00
2022-08-09T14:52:59.001Z,30.00
2022-08-09T14:55:29.286Z,30.00
2022-08-09T14:58:03.086Z,30.00
2022-08-09T15:00:34.290Z,30.00
2022-08-09T15:03:06.474Z,30.00
2022-08-09T15:05:36.673Z,30.00
2022-08-09T15:08:05.479Z,30.00
2022-08-09T15:10:35.370Z,30.00
2022-08-09T15:13:05.901Z,30.00
2022-08-09T15:15:39.011Z,30.00
2022-08-09T15:18:14.297Z,30.00
2022-08-09T15:21:58.254Z,29.90
2022-08-09T15:24:00.604Z,30.00
2022-08-09T15:26:30.681Z,30.00
2022-08-09T15:29:04.373Z,30.00
2022-08-09T15:31:40.689Z,30.00
2022-08-09T15:34:33.287Z,30.00
2022-08-09T15:37:01.212Z,29.90
2022-08-09T15:39:43.927Z,29.90
2022-08-09T15:42:21.854Z,29.90
2022-08-09T15:44:50.424Z,29.90
2022-08-09T15:47:22.632Z,29.90
2022-08-09T15:50:04.987Z,29.90
2022-08-09T15:52:35.709Z,29.90
2022-08-09T15:55:06.026Z,29.90
2022-08-09T15:57:44.189Z,29.90
2022-08-09T16:00:21.868Z,29.90
2022-08-09T16:02:57.108Z,29.80
2022-08-09T16:05:47.439Z,29.80
2022-08-09T16:08:29.938Z,29.80
2022-08-09T16:11:01.516Z,29.80
2022-08-09T16:14:03.303Z,29.80
2022-08-09T16:16:19.381Z,29.80
2022-08-09T16:18:48.833Z,29.80
2022-08-09T16:21:24.965Z,29.80
2022-08-09T16:23:58.331Z,29.80
2022-08-09T16:26:33.485Z,29.80
2022-08-09T16:29:11.110Z,29.80
2022-08-09T16:32:18.082Z,29.80
2022-08-09T16:34:56.409Z,29.80
2022-08-09T16:37:55.019Z,29.70
2022-08-09T16:40:12.121Z,29.70
2022-08-09T16:42:45.322Z,29.70
2022-08-09T16:45:18.549Z,29.70
2022-08-09T16:48:40.517Z,29.70
2022-08-09T16:50:38.773Z,29.70
2022-08-09T16:53:08.726Z,29.70
2022-08-09T16:55:59.987Z,29.70
2022-08-09T16:58:25.185Z,29.70
2022-08-09T17:00:54.950Z,29.60
2022-08-09T17:03:23.687Z,29.60
2022-08-09T17:06:09.408Z,29.60
2022-08-09T17:08:58.965Z,29.60
2022-08-09T17:11:41.205Z,29.60
2022-08-09T17:14:15.987Z,29.60
2022-08-09T17:16:55.011Z,29.60
2022-08-09T17:19:23.068Z,29.60
2022-08-09T17:21:55.585Z,29.60
2022-08-09T17:24:27.890Z,29.60
2022-08-09T17:26:58.752Z,29.60
2022-08-09T17:29:31.599Z,29.50
2022-08-09T17:32:01.959Z,29.50
2022-08-09T17:35:02.079Z,29.50
2022-08-09T17:37:21.121Z,29.50
2022-08-09T17:39:53.668Z,29.50
2022-08-09T17:42:40.863Z,29.50
2022-08-09T17:45:16.135Z,29.50
2022-08-09T17:48:02.790Z,29.50
2022-08-09T17:50:37.167Z,29.50
2022-08-09T17:53:19.317Z,29.50
2022-08-09T17:55:54.137Z,29.40
2022-08-09T17:58:27.033Z,29.40
2022-08-09T18:00:56.661Z,29.40
2022-08-09T18:03:28.652Z,29.40
2022-08-09T18:06:00.857Z,29.40
2022-08-09T18:08:30.567Z,29.40
2022-08-09T18:11:01.667Z,29.40
2022-08-09T18:13:43.614Z,29.40
2022-08-09T18:16:30.428Z,29.40
2022-08-09T18:19:03.916Z,29.30
2022-08-09T18:21:50.375Z,29.30
2022-08-09T18:24:27.330Z,29.30
2022-08-09T18:26:56.606Z,29.30
2022-08-09T18:30:38.674Z,29.30
2022-08-09T18:32:18.964Z,29.30
2022-08-09T18:35:03.301Z,29.30
2022-08-09T18:37:48.118Z,29.30
2022-08-09T18:40:21.112Z,29.20
2022-08-09T18:42:54.985Z,29.20
2022-08-09T18:46:45.088Z,29.20
2022-08-09T18:48:10.993Z,29.20
2022-08-09T18:50:45.732Z,29.20
2022-08-09T18:53:16.625Z,29.10
2022-08-09T18:55:57.058Z,29.10
2022-08-09T18:58:33.476Z,29.10
2022-08-09T19:01:01.536Z,29.10
2022-08-09T19:03:29.782Z,29.10
2022-08-09T19:06:17.805Z,29.00
2022-08-09T19:08:55.350Z,29.00
2022-08-09T19:11:38.051Z,28.90
2022-08-09T19:14:06.958Z,28.90
2022-08-09T19:16:36.317Z,28.90
2022-08-09T19:19:21.472Z,28.90
2022-08-09T19:21:58.930Z,28.90
2022-08-09T19:24:38.381Z,28.80
2022-08-09T19:27:22.640Z,28.80
2022-08-09T19:30:21.506Z,28.80
2022-08-09T19:32:38.651Z,28.70
2022-08-09T19:35:08.258Z,28.70
2022-08-09T19:37:54.467Z,28.70
2022-08-09T19:40:34.106Z,28.60
2022-08-09T19:43:05.236Z,28.60
2022-08-09T19:45:40.206Z,28.60
2022-08-09T19:48:11.805Z,28.50
2022-08-09T19:50:49.375Z,28.50
2022-08-09T19:53:20.686Z,28.50
2022-08-09T19:56:01.836Z,28.40
2022-08-09T19:58:32.865Z,28.40
2022-08-09T20:01:01.563Z,28.40
2022-08-09T20:04:10.758Z,28.30
2022-08-09T20:06:22.922Z,28.30
2022-08-09T20:08:55.173Z,28.20
2022-08-09T20:11:25.903Z,28.20
2022-08-09T20:13:57.175Z,28.20
2022-08-09T20:16:35.772Z,28.20
2022-08-09T20:19:47.706Z,28.10
2022-08-09T20:21:59.949Z,28.10
2022-08-09T20:24:33.659Z,28.00
2022-08-09T20:27:07.941Z,28.00
2022-08-09T20:29:39.225Z,27.90
2022-08-09T20:32:31.174Z,27.90
2022-08-09T20:34:59.373Z,27.90
2022-08-09T20:38:19.020Z,27.80
2022-08-09T20:40:26.232Z,27.80
2022-08-09T20:43:00.147Z,27.70
2022-08-09T20:45:59.542Z,27.70
2022-08-09T20:48:33.493Z,27.60
2022-08-09T20:51:03.176Z,27.60
2022-08-09T20:53:36.663Z,27.50
2022-08-09T20:56:09.410Z,27.50
2022-08-09T20:58:49.823Z,27.50
2022-08-09T21:01:34.275Z,27.40
2022-08-09T21:05:48.407Z,27.40
2022-08-09T21:06:55.176Z,27.40
2022-08-09T21:09:25.040Z,27.30
2022-08-09T21:14:46.258Z,27.30
2022-08-09T21:18:21.642Z,27.20
2022-08-09T21:20:22.607Z,27.20
2022-08-09T21:22:54.950Z,27.10
2022-08-09T21:25:44.411Z,27.10
2022-08-09T21:28:34.470Z,27.00
2022-08-09T21:31:17.161Z,27.00
2022-08-09T21:33:52.338Z,27.00
2022-08-09T21:36:25.860Z,26.90
2022-08-09T21:38:57.238Z,26.90
2022-08-09T21:42:04.391Z,26.90
2022-08-09T21:44:33.100Z,26.80
2022-08-09T21:47:09.002Z,26.70
2022-08-09T21:49:43.015Z,26.70
2022-08-09T21:52:14.847Z,26.70
2022-08-09T21:54:57.889Z,26.70
2022-08-09T21:57:39.385Z,26.60
2022-08-09T22:00:26.778Z,26.60
2022-08-09T22:03:04.720Z,26.50
2022-08-09T22:05:37.637Z,26.50
2022-08-09T22:08:14.706Z,26.50
2022-08-09T22:11:04.820Z,26.40
2022-08-09T22:13:35.415Z,26.40
2022-08-09T22:16:07.607Z,26.40
2022-08-09T22:18:37.577Z,26.40
2022-08-09T22:21:09.497Z,26.30
2022-08-09T22:23:59.048Z,26.30
2022-08-09T22:26:35.603Z,26.20
2022-08-09T22:29:09.159Z,26.20
2022-08-09T22:31:50.483Z,26.20
2022-08-09T22:34:26.248Z,26.00
2022-08-09T22:36:57.081Z,26.10
2022-08-09T22:39:55.757Z,26.10
2022-08-09T22:42:21.443Z,26.00
2022-08-09T22:45:11.578Z,26.00
2022-08-09T22:48:11.730Z,25.90
2022-08-09T22:50:30.507Z,25.90
2022-08-09T22:53:03.654Z,25.90
2022-08-09T22:56:06.651Z,25.80
2022-08-09T22:58:32.703Z,25.80
2022-08-09T23:01:03.626Z,25.80
2022-08-09T23:04:03.445Z,25.70
2022-08-09T23:06:34.661Z,25.70
2022-08-09T23:09:06.835Z,25.60
2022-08-09T23:11:34.963Z,25.60
2022-08-09T23:14:04.070Z,25.60
2022-08-09T23:16:37.981Z,25.60
2022-08-09T23:19:05.873Z,25.50
2022-08-09T23:21:34.302Z,25.50
2022-08-09T23:24:07.365Z,25.50
2022-08-09T23:26:36.665Z,25.50
2022-08-09T23:29:06.525Z,25.40
2022-08-09T23:31:34.890Z,25.40
2022-08-09T23:34:03.784Z,25.40
2022-08-09T23:36:32.506Z,25.30
2022-08-09T23:39:00.730Z,25.30
2022-08-09T23:41:30.098Z,25.30
2022-08-09T23:44:00.356Z,25.30
2022-08-09T23:46:30.034Z,25.20
2022-08-09T23:48:58.886Z,25.20
2022-08-09T23:51:27.481Z,25.20
2022-08-09T23:54:02.407Z,25.10
2022-08-09T23:56:52.601Z,25.10
2022-08-09T23:59:22.668Z,25.10
